createdAt,value
2019-01-25T00:00:26.494Z,0
2019-01-25T00:01:27.211Z,0
2019-01-25T00:02:27.918Z,0
2019-01-25T00:03:28.633Z,0
2019-01-25T00:04:29.364Z,0
2019-01-25T00:05:30.085Z,0
2019-01-25T00:06:30.800Z,0
2019-01-25T00:07:31.520Z,0
2019-01-25T00:08:32.288Z,0
2019-01-25T00:09:32.999Z,0
2019-01-25T00:10:33.700Z,0
2019-01-25T00:11:34.410Z,0
2019-01-25T00:12:35.104Z,0
2019-01-25T00:13:35.814Z,0
2019-01-25T00:14:36.512Z,0
2019-01-25T00:15:37.214Z,0
2019-01-25T00:16:37.939Z,0
2019-01-25T00:17:38.661Z,0
2019-01-25T00:18:39.383Z,0
2019-01-25T00:19:40.413Z,0
2019-01-25T00:20:41.129Z,0
2019-01-25T00:21:41.849Z,0
2019-01-25T00:22:42.556Z,0
2019-01-25T00:23:43.261Z,0
2019-01-25T00:24:43.962Z,0
2019-01-25T00:25:44.670Z,0
2019-01-25T00:26:45.385Z,0
2019-01-25T00:27:46.106Z,0
2019-01-25T00:28:46.892Z,0
2019-01-25T00:29:47.510Z,0
2019-01-25T00:30:48.218Z,0
2019-01-25T00:31:48.921Z,0
2019-01-25T00:32:49.908Z,0
2019-01-25T00:33:50.622Z,0
2019-01-25T00:34:51.328Z,0
2019-01-25T00:35:52.061Z,0
2019-01-25T00:36:52.772Z,0
2019-01-25T00:37:53.489Z,0
2019-01-25T00:38:54.184Z,0
2019-01-25T00:39:54.893Z,0
2019-01-25T00:40:55.645Z,0
2019-01-25T00:41:56.354Z,0
2019-01-25T00:42:57.061Z,0
2019-01-25T00:43:57.780Z,0
2019-01-25T00:44:58.487Z,0
2019-01-25T00:45:59.188Z,0
2019-01-25T00:46:59.894Z,0
2019-01-25T00:48:00.611Z,0
2019-01-25T00:49:01.340Z,0
2019-01-25T00:50:02.039Z,0
2019-01-25T00:51:02.744Z,0
2019-01-25T00:52:03.494Z,0
2019-01-25T00:53:04.208Z,0
2019-01-25T00:54:04.926Z,0
2019-01-25T00:55:05.634Z,0
2019-01-25T00:56:06.345Z,0
2019-01-25T00:57:07.044Z,0
2019-01-25T00:58:07.903Z,0
2019-01-25T00:59:08.599Z,0
2019-01-25T01:00:09.570Z,0
2019-01-25T01:01:10.289Z,0
2019-01-25T01:02:11.012Z,0
2019-01-25T01:03:11.774Z,0
2019-01-25T01:04:12.516Z,0
2019-01-25T01:05:13.214Z,0
2019-01-25T01:06:13.935Z,0
2019-01-25T01:07:14.647Z,0
2019-01-25T01:08:15.371Z,0
2019-01-25T01:09:16.088Z,0
2019-01-25T01:10:16.817Z,0
2019-01-25T01:11:17.531Z,0
2019-01-25T01:12:18.229Z,0
2019-01-25T01:13:18.987Z,0
2019-01-25T01:14:19.695Z,0
2019-01-25T01:15:20.670Z,0
2019-01-25T01:16:21.372Z,0
2019-01-25T01:17:22.095Z,0
2019-01-25T01:18:22.818Z,0
2019-01-25T01:19:23.525Z,0
2019-01-25T01:20:24.232Z,0
2019-01-25T01:21:25.192Z,0
2019-01-25T01:22:25.894Z,0
2019-01-25T01:23:26.609Z,0
2019-01-25T01:24:27.568Z,0
2019-01-25T01:25:28.273Z,0
2019-01-25T01:26:29.002Z,0
2019-01-25T01:27:29.853Z,0
2019-01-25T01:28:30.560Z,0
2019-01-25T01:29:31.283Z,0
2019-01-25T01:30:31.985Z,0
2019-01-25T01:31:32.698Z,0
2019-01-25T01:32:33.448Z,0
2019-01-25T01:33:34.155Z,0
2019-01-25T01:34:34.897Z,0
2019-01-25T01:35:35.570Z,0
2019-01-25T01:36:36.266Z,0
2019-01-25T01:37:37.227Z,0
2019-01-25T01:38:37.936Z,0
2019-01-25T01:39:38.667Z,0
2019-01-25T01:40:39.364Z,0
2019-01-25T01:41:40.095Z,0
2019-01-25T01:42:40.794Z,0
2019-01-25T01:43:41.488Z,0
2019-01-25T01:44:42.462Z,0
2019-01-25T01:45:43.157Z,0
2019-01-25T01:46:43.870Z,0
2019-01-25T01:47:44.579Z,0
2019-01-25T01:48:45.278Z,0
2019-01-25T01:49:46.256Z,0
2019-01-25T01:50:46.946Z,0
2019-01-25T01:51:47.686Z,0
2019-01-25T01:52:48.392Z,0
2019-01-25T01:53:49.099Z,0
2019-01-25T01:54:49.823Z,0
2019-01-25T01:55:50.556Z,0
2019-01-25T01:56:51.253Z,0
2019-01-25T01:57:52.232Z,0
2019-01-25T01:58:52.931Z,0
2019-01-25T01:59:53.631Z,0
2019-01-25T02:00:54.344Z,0
2019-01-25T02:01:55.064Z,0
2019-01-25T02:02:55.784Z,0
2019-01-25T02:03:56.485Z,0
2019-01-25T02:04:57.240Z,0
2019-01-25T02:05:57.967Z,0
2019-01-25T02:06:58.687Z,0
2019-01-25T02:07:59.400Z,0
2019-01-25T02:09:00.127Z,0
2019-01-25T02:10:00.845Z,0
2019-01-25T02:11:01.551Z,0
2019-01-25T02:12:02.265Z,0
2019-01-25T02:13:02.991Z,0
2019-01-25T02:14:03.701Z,0
2019-01-25T02:15:04.520Z,0
2019-01-25T02:16:05.221Z,0
2019-01-25T02:17:05.957Z,0
2019-01-25T02:18:06.674Z,0
2019-01-25T02:19:07.386Z,0
2019-01-25T02:20:08.108Z,0
2019-01-25T02:21:08.819Z,0
2019-01-25T02:22:09.546Z,0
2019-01-25T02:23:10.509Z,0
2019-01-25T02:24:11.212Z,0
2019-01-25T02:25:11.947Z,0
2019-01-25T02:26:12.652Z,0
2019-01-25T02:27:13.361Z,0
2019-01-25T02:28:14.068Z,0
2019-01-25T02:29:14.789Z,0
2019-01-25T02:30:15.498Z,0
2019-01-25T02:31:16.208Z,0
2019-01-25T02:32:16.946Z,0
2019-01-25T02:33:17.645Z,0
2019-01-25T02:34:18.371Z,0
2019-01-25T02:35:19.078Z,0
2019-01-25T02:36:19.782Z,0
2019-01-25T02:37:20.603Z,0
2019-01-25T02:38:21.309Z,0
2019-01-25T02:39:22.022Z,0
2019-01-25T02:40:22.742Z,0
2019-01-25T02:41:23.471Z,0
2019-01-25T02:42:24.295Z,0
2019-01-25T02:43:25.003Z,0
2019-01-25T02:44:25.723Z,0
2019-01-25T02:45:26.425Z,0
2019-01-25T02:46:27.134Z,0
2019-01-25T02:47:27.861Z,0
2019-01-25T02:48:28.685Z,0
2019-01-25T02:49:29.384Z,0
2019-01-25T02:50:30.108Z,0
2019-01-25T02:51:30.825Z,0
2019-01-25T02:52:31.551Z,0
2019-01-25T02:53:32.309Z,0
2019-01-25T02:54:33.007Z,0
2019-01-25T02:55:33.714Z,0
2019-01-25T02:56:34.423Z,0
2019-01-25T02:57:35.127Z,0
2019-01-25T02:58:35.865Z,0
2019-01-25T02:59:36.571Z,0
2019-01-25T03:00:37.271Z,0
2019-01-25T03:01:37.972Z,0
2019-01-25T03:02:38.688Z,0
2019-01-25T03:03:39.390Z,0
2019-01-25T03:04:40.254Z,0
2019-01-25T03:05:40.960Z,0
2019-01-25T03:06:41.687Z,0
2019-01-25T03:07:42.413Z,0
2019-01-25T03:08:43.118Z,0
2019-01-25T03:09:43.878Z,0
2019-01-25T03:10:47.301Z,0
2019-01-25T03:11:45.246Z,0
2019-01-25T03:12:45.970Z,0
2019-01-25T03:13:46.654Z,0
2019-01-25T03:14:47.367Z,0
2019-01-25T03:15:48.222Z,0
2019-01-25T03:16:48.933Z,0
2019-01-25T03:17:49.640Z,0
2019-01-25T03:18:50.372Z,0
2019-01-25T03:19:51.077Z,0
2019-01-25T03:20:51.889Z,0
2019-01-25T03:21:52.794Z,0
2019-01-25T03:22:53.571Z,0
2019-01-25T03:23:54.380Z,0
2019-01-25T03:24:55.826Z,0
2019-01-25T03:25:56.923Z,0
2019-01-25T03:26:57.832Z,0
2019-01-25T03:27:58.579Z,0
2019-01-25T03:28:59.455Z,0
2019-01-25T03:30:00.228Z,0
2019-01-25T03:31:00.909Z,0
2019-01-25T03:32:01.607Z,0
2019-01-25T03:33:02.309Z,0
2019-01-25T03:34:03.013Z,0
2019-01-25T03:35:03.729Z,0
2019-01-25T03:36:04.444Z,0
2019-01-25T03:37:05.150Z,0
2019-01-25T03:38:05.868Z,0
2019-01-25T03:39:06.849Z,0
2019-01-25T03:40:07.560Z,0
2019-01-25T03:41:08.253Z,0
2019-01-25T03:42:09.018Z,0
2019-01-25T03:43:09.732Z,0
2019-01-25T03:44:10.441Z,0
2019-01-25T03:45:11.142Z,0
2019-01-25T03:46:11.857Z,0
2019-01-25T03:47:12.609Z,0
2019-01-25T03:48:13.570Z,0
2019-01-25T03:49:14.270Z,0
2019-01-25T03:50:14.973Z,0
2019-01-25T03:51:15.702Z,0
2019-01-25T03:52:16.402Z,0
2019-01-25T03:53:17.128Z,0
2019-01-25T03:54:17.840Z,0
2019-01-25T03:55:18.549Z,0
2019-01-25T03:56:19.264Z,0
2019-01-25T03:57:19.969Z,0
2019-01-25T03:58:20.691Z,0
2019-01-25T03:59:21.414Z,0
2019-01-25T04:00:22.112Z,0
2019-01-25T04:01:22.827Z,0
2019-01-25T04:02:23.554Z,0
2019-01-25T04:03:25.303Z,0
2019-01-25T04:04:26.005Z,0
2019-01-25T04:05:26.813Z,0
2019-01-25T04:06:27.526Z,0
2019-01-25T04:07:28.235Z,0
2019-01-25T04:08:29.226Z,0
2019-01-25T04:09:29.924Z,0
2019-01-25T04:10:30.629Z,0
2019-01-25T04:11:31.343Z,0
2019-01-25T04:12:32.065Z,0
2019-01-25T04:13:32.765Z,0
2019-01-25T04:14:33.464Z,0
2019-01-25T04:15:34.240Z,0
2019-01-25T04:16:34.935Z,0
2019-01-25T04:17:35.649Z,0
2019-01-25T04:18:36.643Z,0
2019-01-25T04:19:37.339Z,0
2019-01-25T04:20:38.050Z,0
2019-01-25T04:21:38.759Z,0
2019-01-25T04:22:39.486Z,0
2019-01-25T04:23:40.203Z,0
2019-01-25T04:24:40.898Z,0
2019-01-25T04:25:41.624Z,0
2019-01-25T04:26:42.318Z,0
2019-01-25T04:27:43.032Z,0
2019-01-25T04:28:43.831Z,0
2019-01-25T04:29:44.549Z,0
2019-01-25T04:30:45.268Z,0
2019-01-25T04:31:45.981Z,0
2019-01-25T04:32:46.709Z,0
2019-01-25T04:33:47.546Z,0
2019-01-25T04:34:48.254Z,0
2019-01-25T04:35:48.957Z,0
2019-01-25T04:36:49.680Z,0
2019-01-25T04:37:50.402Z,0
2019-01-25T04:38:51.126Z,0
2019-01-25T04:39:51.846Z,0
2019-01-25T04:40:52.555Z,0
2019-01-25T04:41:53.315Z,0
2019-01-25T04:42:54.036Z,0
2019-01-25T04:43:54.748Z,0
2019-01-25T04:44:55.460Z,0
2019-01-25T04:45:56.174Z,0
2019-01-25T04:46:57.002Z,0
2019-01-25T04:47:57.734Z,0
2019-01-25T04:48:58.456Z,0
2019-01-25T04:49:59.170Z,0
2019-01-25T04:50:59.886Z,0
2019-01-25T04:52:00.585Z,0
2019-01-25T04:53:01.293Z,0
2019-01-25T04:54:02.001Z,0
2019-01-25T04:55:02.710Z,0
2019-01-25T04:56:03.417Z,0
2019-01-25T04:57:04.275Z,0
2019-01-25T04:58:04.991Z,0
2019-01-25T04:59:05.708Z,0
2019-01-25T05:00:06.416Z,0
2019-01-25T05:01:07.128Z,0
2019-01-25T05:02:07.935Z,0
2019-01-25T05:03:08.882Z,0
2019-01-25T05:04:09.600Z,0
2019-01-25T05:05:10.316Z,0
2019-01-25T05:06:11.009Z,0
2019-01-25T05:07:11.760Z,0
2019-01-25T05:08:12.472Z,0
2019-01-25T05:09:13.240Z,0
2019-01-25T05:10:13.953Z,0
2019-01-25T05:11:19.697Z,0
2019-01-25T05:12:15.480Z,0
2019-01-25T05:13:16.186Z,0
2019-01-25T05:14:16.886Z,0
2019-01-25T05:15:17.599Z,0
2019-01-25T05:16:18.307Z,0
2019-01-25T05:17:19.024Z,0
2019-01-25T05:18:19.739Z,0
2019-01-25T05:19:20.450Z,0
2019-01-25T05:20:21.155Z,0
2019-01-25T05:21:21.861Z,0
2019-01-25T05:22:22.575Z,0
2019-01-25T05:23:23.280Z,0
2019-01-25T05:24:24.035Z,0
2019-01-25T05:25:24.990Z,0
2019-01-25T05:26:25.701Z,0
2019-01-25T05:27:26.399Z,0
2019-01-25T05:28:27.115Z,0
2019-01-25T05:29:27.820Z,0
2019-01-25T05:30:28.539Z,0
2019-01-25T05:31:29.247Z,0
2019-01-25T05:32:29.949Z,0
2019-01-25T05:33:30.664Z,0
2019-01-25T05:34:31.514Z,0
2019-01-25T05:35:32.224Z,0
2019-01-25T05:36:33.178Z,0
2019-01-25T05:37:33.885Z,0
2019-01-25T05:38:34.584Z,0
2019-01-25T05:39:35.280Z,0
2019-01-25T05:40:36.036Z,0
2019-01-25T05:41:36.743Z,0
2019-01-25T05:42:37.446Z,0
2019-01-25T05:43:38.154Z,0
2019-01-25T05:44:38.876Z,0
2019-01-25T05:45:39.582Z,0
2019-01-25T05:46:40.339Z,0
2019-01-25T05:47:41.043Z,0
2019-01-25T05:48:41.752Z,0
2019-01-25T05:49:42.471Z,0
2019-01-25T05:50:43.179Z,0
2019-01-25T05:51:43.939Z,0
2019-01-25T05:52:44.642Z,0
2019-01-25T05:53:45.364Z,0
2019-01-25T05:54:46.059Z,0
2019-01-25T05:55:46.763Z,0
2019-01-25T05:56:47.527Z,0
2019-01-25T05:57:48.229Z,0
2019-01-25T05:58:48.943Z,0
2019-01-25T05:59:49.635Z,0
2019-01-25T06:00:50.359Z,0
2019-01-25T06:01:51.062Z,0
2019-01-25T06:02:51.777Z,0
2019-01-25T06:03:52.488Z,0
2019-01-25T06:04:53.192Z,0
2019-01-25T06:05:53.897Z,0
2019-01-25T06:06:54.614Z,0
2019-01-25T06:07:55.423Z,0
2019-01-25T06:08:56.123Z,0
2019-01-25T06:09:56.834Z,0
2019-01-25T06:10:57.544Z,0
2019-01-25T06:11:58.268Z,0
2019-01-25T06:12:58.979Z,0
2019-01-25T06:13:59.680Z,0
2019-01-25T06:15:00.407Z,0
2019-01-25T06:16:01.114Z,0
2019-01-25T06:17:01.836Z,0
2019-01-25T06:18:02.538Z,0
2019-01-25T06:19:03.281Z,0
2019-01-25T06:20:03.986Z,0
2019-01-25T06:21:04.696Z,0
2019-01-25T06:22:05.397Z,0
2019-01-25T06:23:06.106Z,0
2019-01-25T06:24:06.872Z,0
2019-01-25T06:25:07.588Z,0
2019-01-25T06:26:08.297Z,0
2019-01-25T06:27:09.000Z,0
2019-01-25T06:28:09.707Z,0
2019-01-25T06:29:10.420Z,0
2019-01-25T06:30:11.123Z,0
2019-01-25T06:31:11.898Z,0
2019-01-25T06:32:12.610Z,0
2019-01-25T06:33:13.325Z,0
2019-01-25T06:34:14.021Z,0
2019-01-25T06:35:14.747Z,0
2019-01-25T06:36:15.617Z,0
2019-01-25T06:37:16.343Z,0
2019-01-25T06:38:17.055Z,0
2019-01-25T06:39:17.749Z,0
2019-01-25T06:40:18.472Z,0
2019-01-25T06:41:19.300Z,0
2019-01-25T06:42:20.014Z,0
2019-01-25T06:43:20.718Z,0
2019-01-25T06:44:21.432Z,0
2019-01-25T06:45:22.133Z,4
2019-01-25T06:46:22.841Z,4
2019-01-25T06:47:23.549Z,0
2019-01-25T06:48:24.249Z,4
2019-01-25T06:49:25.011Z,4
2019-01-25T06:50:25.726Z,4
2019-01-25T06:51:26.421Z,4
2019-01-25T06:52:27.136Z,4
2019-01-25T06:53:27.836Z,4
2019-01-25T06:54:28.643Z,8
2019-01-25T06:55:29.354Z,12
2019-01-25T06:56:30.317Z,12
2019-01-25T06:57:31.018Z,12
2019-01-25T06:58:31.759Z,16
2019-01-25T06:59:32.471Z,16
2019-01-25T07:00:33.178Z,20
2019-01-25T07:01:33.906Z,24
2019-01-25T07:02:34.611Z,24
2019-01-25T07:03:35.419Z,28
2019-01-25T07:04:36.140Z,32
2019-01-25T07:05:36.841Z,36
2019-01-25T07:06:37.545Z,40
2019-01-25T07:07:38.259Z,44
2019-01-25T07:08:38.977Z,52
2019-01-25T07:09:39.737Z,56
2019-01-25T07:10:40.711Z,64
2019-01-25T07:11:42.317Z,68
2019-01-25T07:12:42.118Z,80
2019-01-25T07:13:42.837Z,84
2019-01-25T07:14:43.540Z,92
2019-01-25T07:15:44.257Z,96
2019-01-25T07:16:45.065Z,100
2019-01-25T07:17:45.790Z,108
2019-01-25T07:18:46.510Z,116
2019-01-25T07:19:47.207Z,128
2019-01-25T07:20:47.920Z,136
2019-01-25T07:21:48.675Z,144
2019-01-25T07:22:49.386Z,160
2019-01-25T07:23:50.094Z,176
2019-01-25T07:24:56.926Z,192
2019-01-25T07:25:51.518Z,208
2019-01-25T07:26:52.238Z,228
2019-01-25T07:27:53.210Z,252
2019-01-25T07:28:54.271Z,280
2019-01-25T07:29:55.117Z,308
2019-01-25T07:30:55.848Z,340
2019-01-25T07:31:56.769Z,364
2019-01-25T07:32:57.606Z,396
2019-01-25T07:33:58.364Z,420
2019-01-25T07:34:59.141Z,436
2019-01-25T07:35:59.787Z,448
2019-01-25T07:37:00.609Z,456
2019-01-25T07:38:01.316Z,468
2019-01-25T07:39:02.033Z,480
2019-01-25T07:40:02.753Z,504
2019-01-25T07:41:03.488Z,520
2019-01-25T07:42:04.273Z,528
2019-01-25T07:43:04.977Z,548
2019-01-25T07:44:05.672Z,576
2019-01-25T07:45:07.081Z,600
2019-01-25T07:46:07.862Z,616
2019-01-25T07:47:08.601Z,624
2019-01-25T07:48:09.353Z,636
2019-01-25T07:49:10.050Z,644
2019-01-25T07:50:11.053Z,640
2019-01-25T07:51:11.730Z,656
2019-01-25T07:52:12.430Z,680
2019-01-25T07:53:13.181Z,708
2019-01-25T07:54:13.848Z,740
2019-01-25T07:55:14.570Z,772
2019-01-25T07:56:15.278Z,796
2019-01-25T07:57:16.017Z,816
2019-01-25T07:58:16.711Z,828
2019-01-25T07:59:17.433Z,856
2019-01-25T08:00:18.152Z,884
2019-01-25T08:01:18.856Z,904
2019-01-25T08:02:19.552Z,940
2019-01-25T08:03:20.266Z,968
2019-01-25T08:04:20.991Z,984
2019-01-25T08:05:21.721Z,980
2019-01-25T08:06:22.418Z,984
2019-01-25T08:07:23.161Z,1052
2019-01-25T08:08:24.010Z,1080
2019-01-25T08:09:24.551Z,1088
2019-01-25T08:10:25.289Z,1092
2019-01-25T08:11:25.984Z,1092
2019-01-25T08:12:26.694Z,1140
2019-01-25T08:13:27.403Z,1156
2019-01-25T08:14:28.128Z,1164
2019-01-25T08:15:29.086Z,1208
2019-01-25T08:16:29.562Z,1248
2019-01-25T08:17:30.276Z,1320
2019-01-25T08:18:30.984Z,1452
2019-01-25T08:19:31.696Z,1520
2019-01-25T08:20:32.420Z,1468
2019-01-25T08:21:33.113Z,1324
2019-01-25T08:22:33.869Z,1452
2019-01-25T08:23:34.553Z,1480
2019-01-25T08:24:35.262Z,1548
2019-01-25T08:25:36.744Z,1584
2019-01-25T08:26:39.060Z,1536
2019-01-25T08:27:40.246Z,1460
2019-01-25T08:28:41.097Z,1412
2019-01-25T08:29:41.833Z,1464
2019-01-25T08:30:42.562Z,1448
2019-01-25T08:31:43.257Z,1448
2019-01-25T08:32:43.974Z,1508
2019-01-25T08:33:44.725Z,1612
2019-01-25T08:34:45.421Z,1812
2019-01-25T08:35:46.111Z,2056
2019-01-25T08:36:47.122Z,2244
2019-01-25T08:37:47.785Z,2340
2019-01-25T08:38:48.516Z,2320
2019-01-25T08:39:49.280Z,2228
2019-01-25T08:40:49.997Z,2216
2019-01-25T08:41:50.705Z,2316
2019-01-25T08:42:51.415Z,2416
2019-01-25T08:43:52.137Z,2532
2019-01-25T08:44:52.857Z,2644
2019-01-25T08:45:53.552Z,2656
2019-01-25T08:46:54.258Z,2528
2019-01-25T08:47:54.993Z,2520
2019-01-25T08:48:55.741Z,2644
2019-01-25T08:49:57.936Z,2752
2019-01-25T08:50:57.109Z,2824
2019-01-25T08:51:57.823Z,2908
2019-01-25T08:52:58.530Z,2984
2019-01-25T08:53:59.259Z,3052
2019-01-25T08:55:00.342Z,3088
2019-01-25T08:56:01.027Z,3084
2019-01-25T08:57:01.864Z,3236
2019-01-25T08:58:02.565Z,3508
2019-01-25T08:59:03.277Z,3688
2019-01-25T09:00:04.027Z,3752
2019-01-25T09:01:04.743Z,3656
2019-01-25T09:02:05.462Z,3556
2019-01-25T09:03:06.453Z,3936
2019-01-25T09:04:07.238Z,4344
2019-01-25T09:05:08.337Z,4688
2019-01-25T09:06:09.055Z,4836
2019-01-25T09:07:09.765Z,4716
2019-01-25T09:08:10.476Z,4596
2019-01-25T09:09:11.181Z,4428
2019-01-25T09:10:11.887Z,4344
2019-01-25T09:11:12.598Z,4552
2019-01-25T09:12:13.317Z,5032
2019-01-25T09:13:14.021Z,5056
2019-01-25T09:14:14.744Z,4680
2019-01-25T09:15:15.734Z,4496
2019-01-25T09:16:16.441Z,4748
2019-01-25T09:17:17.249Z,4960
2019-01-25T09:18:17.962Z,4992
2019-01-25T09:19:18.708Z,4760
2019-01-25T09:20:19.702Z,4804
2019-01-25T09:21:20.405Z,5332
2019-01-25T09:22:21.226Z,5248
2019-01-25T09:23:21.936Z,6076
2019-01-25T09:24:22.651Z,6320
2019-01-25T09:25:23.601Z,6452
2019-01-25T09:26:24.333Z,5588
2019-01-25T09:27:25.188Z,7336
2019-01-25T09:28:25.914Z,7424
2019-01-25T09:29:26.641Z,7168
2019-01-25T09:30:27.353Z,7100
2019-01-25T09:31:28.064Z,7136
2019-01-25T09:32:28.933Z,6936
2019-01-25T09:33:29.645Z,6972
2019-01-25T09:34:30.363Z,7388
2019-01-25T09:35:31.083Z,7688
2019-01-25T09:36:31.807Z,7952
2019-01-25T09:37:32.544Z,8180
2019-01-25T09:38:34.223Z,8396
2019-01-25T09:39:34.013Z,8252
2019-01-25T09:40:34.728Z,7892
2019-01-25T09:41:35.453Z,8032
2019-01-25T09:42:36.167Z,8260
2019-01-25T09:43:36.891Z,5852
2019-01-25T09:44:37.701Z,7416
2019-01-25T09:45:38.412Z,8056
2019-01-25T09:46:39.128Z,8488
2019-01-25T09:47:39.836Z,7116
2019-01-25T09:48:40.583Z,6308
2019-01-25T09:49:41.384Z,5996
2019-01-25T09:50:42.108Z,7124
2019-01-25T09:51:42.837Z,7100
2019-01-25T09:52:43.546Z,7748
2019-01-25T09:53:44.282Z,7532
2019-01-25T09:54:45.088Z,7036
2019-01-25T09:55:45.803Z,7808
2019-01-25T09:56:46.780Z,8204
2019-01-25T09:57:47.486Z,8116
2019-01-25T09:58:48.203Z,9168
2019-01-25T09:59:48.921Z,9504
2019-01-25T10:00:49.636Z,9408
2019-01-25T10:01:50.341Z,8844
2019-01-25T10:02:51.053Z,8592
2019-01-25T10:03:51.767Z,8612
2019-01-25T10:04:53.959Z,8048
2019-01-25T10:05:53.192Z,7684
2019-01-25T10:06:53.905Z,7160
2019-01-25T10:07:54.622Z,7480
2019-01-25T10:08:55.329Z,7260
2019-01-25T10:09:56.044Z,7740
2019-01-25T10:10:57.445Z,7964
2019-01-25T10:11:58.166Z,7692
2019-01-25T10:12:58.882Z,7320
2019-01-25T10:13:59.590Z,8344
2019-01-25T10:15:00.300Z,8820
2019-01-25T10:16:01.042Z,6916
2019-01-25T10:17:01.726Z,6480
2019-01-25T10:18:02.686Z,9076
2019-01-25T10:19:03.409Z,10340
2019-01-25T10:20:04.121Z,9344
2019-01-25T10:21:04.936Z,8664
2019-01-25T10:22:05.656Z,8892
2019-01-25T10:23:06.378Z,11484
2019-01-25T10:24:07.098Z,14704
2019-01-25T10:25:07.837Z,17824
2019-01-25T10:26:08.645Z,15780
2019-01-25T10:27:09.363Z,12156
2019-01-25T10:28:10.073Z,11384
2019-01-25T10:29:10.801Z,12612
2019-01-25T10:30:11.521Z,12564
2019-01-25T10:31:12.234Z,13280
2019-01-25T10:32:12.955Z,13092
2019-01-25T10:33:13.673Z,13920
2019-01-25T10:34:14.386Z,12760
2019-01-25T10:35:15.104Z,12360
2019-01-25T10:36:15.835Z,12176
2019-01-25T10:37:16.537Z,12360
2019-01-25T10:38:17.262Z,12296
2019-01-25T10:39:17.982Z,12544
2019-01-25T10:40:18.698Z,12484
2019-01-25T10:41:19.411Z,12540
2019-01-25T10:42:20.117Z,12048
2019-01-25T10:43:20.854Z,13556
2019-01-25T10:44:21.563Z,14280
2019-01-25T10:45:22.272Z,14028
2019-01-25T10:46:22.983Z,14324
2019-01-25T10:47:23.746Z,12984
2019-01-25T10:48:24.729Z,12452
2019-01-25T10:49:25.541Z,11520
2019-01-25T10:50:26.258Z,11692
2019-01-25T10:51:27.088Z,13228
2019-01-25T10:52:27.791Z,13560
2019-01-25T10:53:28.503Z,13260
2019-01-25T10:54:29.214Z,12640
2019-01-25T10:55:30.177Z,13180
2019-01-25T10:56:31.042Z,12776
2019-01-25T10:57:31.749Z,11784
2019-01-25T10:58:32.463Z,11464
2019-01-25T10:59:33.180Z,9924
2019-01-25T11:00:33.888Z,12520
2019-01-25T11:01:34.651Z,14000
2019-01-25T11:02:35.414Z,14000
2019-01-25T11:03:36.079Z,12100
2019-01-25T11:04:36.794Z,15728
2019-01-25T11:05:37.781Z,16732
2019-01-25T11:06:38.496Z,16112
2019-01-25T11:07:39.230Z,13988
2019-01-25T11:08:39.937Z,12844
2019-01-25T11:09:40.643Z,13260
2019-01-25T11:10:41.361Z,13012
2019-01-25T11:11:42.074Z,14392
2019-01-25T11:12:43.182Z,15888
2019-01-25T11:13:43.573Z,15644
2019-01-25T11:14:44.277Z,14828
2019-01-25T11:15:44.991Z,15028
2019-01-25T11:16:45.710Z,14404
2019-01-25T11:17:46.411Z,13908
2019-01-25T11:18:47.253Z,14456
2019-01-25T11:19:47.956Z,13956
2019-01-25T11:20:48.668Z,14724
2019-01-25T11:21:49.376Z,14444
2019-01-25T11:22:50.642Z,14680
2019-01-25T11:23:51.340Z,15404
2019-01-25T11:24:52.048Z,15888
2019-01-25T11:25:52.775Z,14396
2019-01-25T11:26:53.750Z,13316
2019-01-25T11:27:54.768Z,12332
2019-01-25T11:28:55.823Z,13200
2019-01-25T11:29:56.526Z,13472
2019-01-25T11:30:57.234Z,12208
2019-01-25T11:31:57.961Z,12324
2019-01-25T11:32:58.686Z,12848
2019-01-25T11:33:59.412Z,13168
2019-01-25T11:35:00.278Z,13360
2019-01-25T11:36:00.997Z,13668
2019-01-25T11:37:01.970Z,13164
2019-01-25T11:38:02.682Z,12888
2019-01-25T11:39:03.402Z,15020
2019-01-25T11:40:04.134Z,15384
2019-01-25T11:41:05.851Z,15672
2019-01-25T11:42:06.561Z,15952
2019-01-25T11:43:08.811Z,17020
2019-01-25T11:44:08.328Z,15220
2019-01-25T11:45:09.368Z,14748
2019-01-25T11:46:10.071Z,14920
2019-01-25T11:47:10.789Z,17888
2019-01-25T11:48:11.486Z,20672
2019-01-25T11:49:12.203Z,18528
2019-01-25T11:50:12.912Z,17068
2019-01-25T11:51:13.634Z,18752
2019-01-25T11:52:14.368Z,15412
2019-01-25T11:53:15.611Z,15260
2019-01-25T11:54:16.337Z,16716
2019-01-25T11:55:17.307Z,15848
2019-01-25T11:56:18.013Z,14068
2019-01-25T11:57:18.726Z,14456
2019-01-25T11:58:19.448Z,15136
2019-01-25T11:59:20.176Z,14576
2019-01-25T12:00:20.887Z,14836
2019-01-25T12:01:21.600Z,15900
2019-01-25T12:02:22.311Z,16764
2019-01-25T12:03:23.026Z,17204
2019-01-25T12:04:23.743Z,17072
2019-01-25T12:05:24.464Z,16692
2019-01-25T12:06:25.168Z,16560
2019-01-25T12:07:25.888Z,15588
2019-01-25T12:08:26.609Z,17120
2019-01-25T12:09:27.330Z,16672
2019-01-25T12:10:28.049Z,17068
2019-01-25T12:11:28.751Z,14624
2019-01-25T12:12:29.483Z,13548
2019-01-25T12:13:30.195Z,13284
2019-01-25T12:14:31.023Z,12076
2019-01-25T12:15:31.737Z,10984
2019-01-25T12:16:32.693Z,12640
2019-01-25T12:17:33.419Z,12908
2019-01-25T12:18:34.465Z,15004
2019-01-25T12:19:35.229Z,16428
2019-01-25T12:20:35.928Z,16892
2019-01-25T12:21:36.621Z,15992
2019-01-25T12:22:37.386Z,14844
2019-01-25T12:23:38.106Z,14152
2019-01-25T12:24:38.917Z,14392
2019-01-25T12:25:39.622Z,13740
2019-01-25T12:26:40.341Z,12912
2019-01-25T12:27:41.062Z,12228
2019-01-25T12:28:41.779Z,11920
2019-01-25T12:29:42.591Z,11508
2019-01-25T12:30:43.308Z,11876
2019-01-25T12:31:44.029Z,12048
2019-01-25T12:32:44.729Z,11964
2019-01-25T12:33:45.451Z,11844
2019-01-25T12:34:46.311Z,11692
2019-01-25T12:35:47.019Z,11284
2019-01-25T12:36:47.740Z,11372
2019-01-25T12:37:48.576Z,11944
2019-01-25T12:38:49.286Z,11676
2019-01-25T12:39:49.993Z,11464
2019-01-25T12:40:50.709Z,11060
2019-01-25T12:41:51.586Z,11276
2019-01-25T12:42:52.293Z,11504
2019-01-25T12:43:53.266Z,11740
2019-01-25T12:44:53.964Z,11868
2019-01-25T12:45:54.669Z,11724
2019-01-25T12:46:55.506Z,11412
2019-01-25T12:47:56.212Z,11392
2019-01-25T12:48:56.934Z,12028
2019-01-25T12:49:57.650Z,12380
2019-01-25T12:50:58.367Z,12140
2019-01-25T12:51:59.078Z,11312
2019-01-25T12:52:59.816Z,11116
2019-01-25T12:54:00.603Z,10872
2019-01-25T12:55:01.312Z,11064
2019-01-25T12:56:02.027Z,11484
2019-01-25T12:57:02.742Z,11880
2019-01-25T12:58:03.450Z,12296
2019-01-25T12:59:04.157Z,11784
2019-01-25T13:00:04.874Z,11864
2019-01-25T13:01:06.213Z,11472
2019-01-25T13:02:06.289Z,11084
2019-01-25T13:03:06.999Z,11024
2019-01-25T13:04:07.713Z,11012
2019-01-25T13:05:08.435Z,11364
2019-01-25T13:06:09.149Z,11160
2019-01-25T13:07:09.867Z,10204
2019-01-25T13:08:10.579Z,9640
2019-01-25T13:09:11.292Z,10076
2019-01-25T13:10:12.004Z,9628
2019-01-25T13:11:12.858Z,9632
2019-01-25T13:12:13.570Z,9236
2019-01-25T13:13:14.286Z,8920
2019-01-25T13:14:15.001Z,9068
2019-01-25T13:15:15.715Z,9324
2019-01-25T13:16:16.483Z,9044
2019-01-25T13:17:17.192Z,9392
2019-01-25T13:18:17.910Z,9368
2019-01-25T13:19:18.625Z,8860
2019-01-25T13:20:19.359Z,9236
2019-01-25T13:21:20.177Z,8872
2019-01-25T13:22:21.022Z,8724
2019-01-25T13:23:21.761Z,8248
2019-01-25T13:24:22.484Z,8008
2019-01-25T13:25:23.193Z,7936
2019-01-25T13:26:24.058Z,7208
2019-01-25T13:27:24.767Z,6876
2019-01-25T13:28:25.479Z,6768
2019-01-25T13:29:26.584Z,6308
2019-01-25T13:30:26.917Z,6408
2019-01-25T13:31:27.669Z,6344
2019-01-25T13:32:28.426Z,6072
2019-01-25T13:33:29.125Z,5892
2019-01-25T13:34:29.841Z,5640
2019-01-25T13:35:30.559Z,5296
2019-01-25T13:36:31.274Z,5364
2019-01-25T13:37:31.993Z,5432
2019-01-25T13:38:32.706Z,5552
2019-01-25T13:39:33.425Z,5416
2019-01-25T13:40:34.138Z,5680
2019-01-25T13:41:34.966Z,5760
2019-01-25T13:42:35.673Z,5660
2019-01-25T13:43:39.138Z,5260
2019-01-25T13:44:37.109Z,5068
2019-01-25T13:45:37.861Z,5312
2019-01-25T13:46:38.626Z,5320
2019-01-25T13:47:39.359Z,4952
2019-01-25T13:48:40.065Z,4788
2019-01-25T13:49:40.771Z,5048
2019-01-25T13:50:41.484Z,5020
2019-01-25T13:51:42.684Z,4840
2019-01-25T13:52:43.498Z,4752
2019-01-25T13:53:44.205Z,4780
2019-01-25T13:54:44.931Z,4664
2019-01-25T13:55:45.635Z,4584
2019-01-25T13:56:46.458Z,4604
2019-01-25T13:57:47.165Z,4608
2019-01-25T13:58:47.877Z,4628
2019-01-25T13:59:48.879Z,4452
2019-01-25T14:00:49.595Z,4272
2019-01-25T14:01:50.360Z,4456
2019-01-25T14:02:51.073Z,4196
2019-01-25T14:03:51.797Z,4020
2019-01-25T14:04:52.555Z,4088
2019-01-25T14:05:53.265Z,4080
2019-01-25T14:06:54.077Z,4048
2019-01-25T14:07:54.795Z,3940